createdAt,value
2022-08-21T04:02:42.084Z,20.50
2022-08-21T04:05:10.365Z,20.50
2022-08-21T04:07:38.496Z,20.40
2022-08-21T04:10:09.779Z,20.50
2022-08-21T04:12:48.435Z,19.90
2022-08-21T04:15:16.517Z,20.40
2022-08-21T04:17:47.105Z,20.40
2022-08-21T04:20:15.287Z,20.40
2022-08-21T04:22:43.418Z,20.20
2022-08-21T04:25:11.759Z,20.30
2022-08-21T04:27:40.208Z,20.40
2022-08-21T04:30:11.220Z,20.60
2022-08-21T04:32:39.945Z,20.00
2022-08-21T04:35:15.968Z,20.10
2022-08-21T04:37:44.594Z,20.20
2022-08-21T04:40:15.759Z,19.90
2022-08-21T04:42:47.701Z,20.00
2022-08-21T04:45:23.310Z,19.80
2022-08-21T04:47:53.498Z,19.80
2022-08-21T04:50:29.719Z,20.40
2022-08-21T04:52:58.799Z,20.60
2022-08-21T04:55:28.874Z,20.70
2022-08-21T04:57:58.791Z,20.50
2022-08-21T05:00:27.544Z,20.90
2022-08-21T05:03:00.439Z,20.50
2022-08-21T05:05:31.390Z,20.70
2022-08-21T05:08:02.746Z,20.40
2022-08-21T05:10:32.321Z,20.60
2022-08-21T05:13:01.931Z,20.70
2022-08-21T05:15:31.569Z,20.80
2022-08-21T05:18:00.665Z,20.90
2022-08-21T05:20:31.271Z,20.80
2022-08-21T05:22:59.515Z,21.10
2022-08-21T05:25:28.148Z,20.90
2022-08-21T05:27:58.208Z,21.30
2022-08-21T05:30:29.027Z,21.30
2022-08-21T05:33:00.002Z,21.50
2022-08-21T05:35:31.153Z,21.60
2022-08-21T05:38:01.400Z,21.90
2022-08-21T05:40:29.733Z,21.60
2022-08-21T05:43:00.115Z,21.50
2022-08-21T05:45:42.850Z,21.60
2022-08-21T05:48:15.051Z,21.30
2022-08-21T05:50:46.421Z,21.40
2022-08-21T05:53:15.081Z,21.00
2022-08-21T05:55:46.510Z,21.20
2022-08-21T05:58:17.283Z,21.50
2022-08-21T06:00:46.587Z,21.20
2022-08-21T06:03:18.083Z,21.60
2022-08-21T06:05:47.767Z,21.20
2022-08-21T06:08:16.621Z,21.10
2022-08-21T06:10:45.211Z,21.30
2022-08-21T06:13:14.115Z,21.10
2022-08-21T06:15:42.591Z,21.30
2022-08-21T06:18:11.546Z,21.30
2022-08-21T06:20:40.846Z,22.20
2022-08-21T06:23:10.424Z,22.00
2022-08-21T06:25:38.691Z,21.90
2022-08-21T06:28:10.784Z,22.30
2022-08-21T06:30:40.823Z,22.30
2022-08-21T06:33:09.504Z,22.20
2022-08-21T06:35:41.484Z,22.00
2022-08-21T06:38:11.326Z,22.50
2022-08-21T06:40:43.860Z,22.00
2022-08-21T06:43:18.657Z,22.60
2022-08-21T06:45:47.227Z,22.30
2022-08-21T06:48:19.158Z,22.50
2022-08-21T06:50:48.381Z,22.80
2022-08-21T06:53:22.778Z,22.80
2022-08-21T06:55:51.185Z,22.70
2022-08-21T06:58:20.693Z,22.50
2022-08-21T07:00:55.424Z,23.00
2022-08-21T07:03:30.147Z,23.00
2022-08-21T07:05:59.292Z,23.20
2022-08-21T07:08:30.111Z,23.10
2022-08-21T07:11:03.002Z,23.80
2022-08-21T07:13:31.299Z,23.10
2022-08-21T07:16:03.908Z,23.70
2022-08-21T07:18:32.675Z,24.50
2022-08-21T07:21:03.000Z,24.00
2022-08-21T07:23:37.071Z,24.30
2022-08-21T07:26:07.009Z,24.60
2022-08-21T07:28:35.660Z,24.60
2022-08-21T07:31:05.413Z,24.40
2022-08-21T07:33:36.679Z,24.10
2022-08-21T07:36:06.514Z,24.30
2022-08-21T07:38:35.945Z,23.80
2022-08-21T07:41:12.450Z,24.00
2022-08-21T07:43:46.170Z,23.90
2022-08-21T07:46:15.418Z,24.20
2022-08-21T07:48:43.879Z,24.00
2022-08-21T07:51:16.101Z,24.20
2022-08-21T07:53:51.758Z,24.30
2022-08-21T07:56:21.031Z,24.50
2022-08-21T07:58:49.710Z,24.90
2022-08-21T08:01:19.074Z,25.10
2022-08-21T08:03:48.212Z,24.50
2022-08-21T08:06:17.649Z,24.60
2022-08-21T08:08:47.653Z,25.40
2022-08-21T08:11:16.993Z,25.20
2022-08-21T08:13:48.957Z,25.40
2022-08-21T08:16:18.129Z,25.40
2022-08-21T08:18:46.824Z,25.50
2022-08-21T08:21:15.605Z,25.50
2022-08-21T08:23:45.043Z,25.30
2022-08-21T08:26:16.515Z,25.40
2022-08-21T08:28:45.128Z,25.40
2022-08-21T08:31:13.134Z,25.80
2022-08-21T08:33:41.732Z,25.80
2022-08-21T08:36:16.269Z,26.20
2022-08-21T08:38:45.296Z,26.30
2022-08-21T08:41:18.328Z,26.60
2022-08-21T08:43:53.989Z,26.20
2022-08-21T08:46:33.528Z,27.00
2022-08-21T08:49:09.974Z,26.30
2022-08-21T08:51:46.734Z,26.40
2022-08-21T08:54:21.177Z,26.60
2022-08-21T08:56:53.305Z,26.90
2022-08-21T08:59:28.213Z,27.00
2022-08-21T09:01:56.840Z,26.90
2022-08-21T09:04:29.705Z,27.40
2022-08-21T09:07:17.940Z,27.50
2022-08-21T09:10:03.825Z,27.70
2022-08-21T09:12:50.839Z,28.10
2022-08-21T09:15:33.835Z,28.00
2022-08-21T09:18:35.240Z,28.00
2022-08-21T09:21:17.765Z,28.40
2022-08-21T09:24:00.366Z,28.90
2022-08-21T09:26:36.491Z,29.00
2022-08-21T09:29:08.948Z,28.60
2022-08-21T09:31:39.333Z,29.20
2022-08-21T09:34:10.222Z,29.10
2022-08-21T09:36:44.195Z,28.90
2022-08-21T09:39:24.855Z,28.60
2022-08-21T09:42:00.139Z,29.20
2022-08-21T09:44:34.727Z,28.90
2022-08-21T09:47:02.803Z,28.80
2022-08-21T09:49:33.491Z,28.70
2022-08-21T09:52:03.371Z,28.60
2022-08-21T09:54:36.219Z,28.40
2022-08-21T09:57:37.891Z,28.20
2022-08-21T10:00:26.344Z,28.80
2022-08-21T10:02:55.178Z,28.80
2022-08-21T10:05:27.867Z,29.00
2022-08-21T10:07:55.924Z,29.00
2022-08-21T10:10:30.075Z,29.00
2022-08-21T10:13:10.329Z,29.50
2022-08-21T10:15:56.656Z,30.00
2022-08-21T10:18:37.949Z,30.40
2022-08-21T10:21:19.705Z,30.30
2022-08-21T10:24:11.127Z,30.10
2022-08-21T10:26:55.583Z,30.10
2022-08-21T10:29:45.399Z,30.80
2022-08-21T10:32:36.348Z,30.50
2022-08-21T10:35:14.843Z,30.40
2022-08-21T10:38:08.403Z,29.90
2022-08-21T10:40:45.575Z,30.50
2022-08-21T10:43:25.492Z,30.20
2022-08-21T10:46:15.293Z,30.10
2022-08-21T10:48:54.953Z,30.10
2022-08-21T10:51:36.739Z,30.50
2022-08-21T10:54:21.492Z,30.70
2022-08-21T10:57:01.898Z,31.50
2022-08-21T10:59:40.183Z,31.30
2022-08-21T11:02:19.411Z,31.30
2022-08-21T11:04:58.998Z,31.40
2022-08-21T11:07:34.628Z,30.40
2022-08-21T11:10:11.648Z,30.50
2022-08-21T11:12:47.204Z,30.80
2022-08-21T11:15:34.021Z,31.10
2022-08-21T11:18:18.811Z,31.20
2022-08-21T11:20:58.696Z,31.20
2022-08-21T11:23:38.099Z,31.60
2022-08-21T11:26:17.154Z,31.60
2022-08-21T11:28:52.910Z,31.80
2022-08-21T11:31:47.825Z,32.10
2022-08-21T11:34:33.560Z,32.40
2022-08-21T11:37:12.601Z,32.30
2022-08-21T11:39:52.772Z,32.80
2022-08-21T11:42:34.307Z,32.80
2022-08-21T11:45:20.597Z,34.20
2022-08-21T11:48:00.591Z,34.40
2022-08-21T11:50:36.105Z,35.10
2022-08-21T11:53:14.136Z,36.50
2022-08-21T11:55:49.477Z,37.00
2022-08-21T11:58:29.202Z,37.20
2022-08-21T12:01:05.527Z,37.30
2022-08-21T12:03:38.124Z,37.50
2022-08-21T12:06:12.640Z,37.40
2022-08-21T12:08:45.417Z,38.20
2022-08-21T12:11:30.483Z,38.10
2022-08-21T12:14:13.327Z,38.40
2022-08-21T12:16:44.759Z,40.90
2022-08-21T12:19:30.219Z,40.60
2022-08-21T12:22:10.858Z,41.30
2022-08-21T12:24:43.668Z,43.10
2022-08-21T12:27:31.059Z,41.90
2022-08-21T12:30:04.098Z,42.30
2022-08-21T12:32:45.646Z,42.30
2022-08-21T12:35:24.748Z,43.40
2022-08-21T12:38:03.601Z,44.80
2022-08-21T12:40:40.891Z,45.10
2022-08-21T12:43:18.593Z,44.00
2022-08-21T12:45:50.288Z,45.30
2022-08-21T12:48:25.647Z,47.20
2022-08-21T12:50:58.117Z,47.20
2022-08-21T12:53:37.812Z,44.70
2022-08-21T12:56:13.253Z,46.70
2022-08-21T12:58:46.472Z,46.80
2022-08-21T13:01:23.809Z,45.00
2022-08-21T13:04:00.265Z,46.30
2022-08-21T13:06:44.233Z,45.30
2022-08-21T13:09:16.343Z,46.50
2022-08-21T13:11:50.527Z,46.10
2022-08-21T13:14:30.242Z,46.10
2022-08-21T13:17:01.540Z,45.30
2022-08-21T13:19:30.495Z,45.80
2022-08-21T13:21:58.740Z,44.60
2022-08-21T13:24:45.932Z,43.70
2022-08-21T13:27:27.718Z,43.80
2022-08-21T13:30:14.576Z,45.90
2022-08-21T13:32:47.571Z,50.00
2022-08-21T13:35:20.730Z,50.90
2022-08-21T13:37:52.535Z,51.20
2022-08-21T13:40:27.176Z,49.30
2022-08-21T13:42:57.564Z,51.00
2022-08-21T13:45:31.918Z,48.60
2022-08-21T13:48:06.407Z,46.40
2022-08-21T13:50:38.460Z,47.30
2022-08-21T13:53:22.696Z,49.50
2022-08-21T13:55:50.965Z,49.80
2022-08-21T13:58:30.205Z,49.20
2022-08-21T14:01:01.513Z,50.10
2022-08-21T14:03:40.401Z,50.40
2022-08-21T14:06:16.658Z,50.20
2022-08-21T14:08:52.924Z,48.00
2022-08-21T14:11:21.919Z,44.70
2022-08-21T14:14:00.226Z,42.80
2022-08-21T14:16:42.836Z,41.70
2022-08-21T14:19:21.255Z,39.80
2022-08-21T14:21:50.021Z,38.70
2022-08-21T14:24:30.839Z,37.20
2022-08-21T14:27:05.134Z,37.30
2022-08-21T14:29:39.523Z,36.90
2022-08-21T14:32:21.481Z,36.40
2022-08-21T14:34:50.101Z,35.50
2022-08-21T14:37:18.179Z,35.30
2022-08-21T14:39:46.614Z,35.80
2022-08-21T14:42:15.113Z,35.70
2022-08-21T14:44:44.910Z,35.50
2022-08-21T14:47:13.463Z,37.20
2022-08-21T14:49:41.770Z,37.10
2022-08-21T14:52:10.201Z,36.50
2022-08-21T14:54:38.308Z,36.70
2022-08-21T14:57:11.088Z,37.10
2022-08-21T14:59:39.584Z,37.10
2022-08-21T15:02:10.371Z,37.00
2022-08-21T15:04:38.604Z,37.20
2022-08-21T15:07:07.094Z,37.20
2022-08-21T15:09:35.279Z,36.90
2022-08-21T15:12:06.001Z,37.10
2022-08-21T15:14:38.208Z,36.70
2022-08-21T15:17:11.283Z,36.10
2022-08-21T15:19:40.453Z,35.70
2022-08-21T15:22:15.368Z,35.80
2022-08-21T15:24:47.549Z,35.50
2022-08-21T15:27:18.529Z,34.30
2022-08-21T15:29:46.910Z,33.60
2022-08-21T15:32:24.360Z,33.20
2022-08-21T15:34:53.312Z,32.20
2022-08-21T15:37:23.033Z,32.30
2022-08-21T15:39:54.136Z,31.90
2022-08-21T15:42:24.304Z,31.60
2022-08-21T15:44:53.500Z,31.50
2022-08-21T15:47:28.204Z,31.10
2022-08-21T15:49:56.386Z,31.10
2022-08-21T15:52:25.029Z,31.10
2022-08-21T15:54:54.079Z,30.50
2022-08-21T15:57:25.295Z,29.30
2022-08-21T15:59:59.516Z,29.90
2022-08-21T16:02:32.849Z,29.50
2022-08-21T16:05:02.029Z,29.70
2022-08-21T16:07:30.332Z,29.40
2022-08-21T16:09:58.651Z,29.70
2022-08-21T16:12:32.845Z,29.60
2022-08-21T16:15:05.215Z,29.40
2022-08-21T16:17:37.384Z,29.20
2022-08-21T16:20:10.384Z,29.10
2022-08-21T16:22:44.873Z,28.50
2022-08-21T16:25:15.079Z,28.80
2022-08-21T16:27:45.620Z,28.90
2022-08-21T16:30:15.868Z,28.80
2022-08-21T16:32:47.020Z,28.80
2022-08-21T16:35:19.441Z,28.60
2022-08-21T16:37:52.372Z,28.50
2022-08-21T16:40:22.932Z,26.50
2022-08-21T16:42:52.185Z,27.60
2022-08-21T16:45:22.120Z,27.80
2022-08-21T16:47:52.245Z,28.00
2022-08-21T16:50:24.685Z,28.00
2022-08-21T16:52:54.519Z,27.90
2022-08-21T16:55:22.885Z,27.60
2022-08-21T16:57:54.547Z,27.70
2022-08-21T17:00:23.606Z,27.70
2022-08-21T17:02:56.755Z,27.90
2022-08-21T17:05:24.887Z,27.70
2022-08-21T17:07:53.061Z,27.00
2022-08-21T17:10:21.606Z,26.80
2022-08-21T17:12:57.602Z,27.40
2022-08-21T17:15:37.753Z,27.40
2022-08-21T17:18:13.313Z,27.50
2022-08-21T17:20:42.075Z,27.40
2022-08-21T17:23:10.230Z,26.80
2022-08-21T17:25:42.336Z,26.30
2022-08-21T17:28:14.829Z,26.90
2022-08-21T17:30:46.276Z,27.10
2022-08-21T17:33:19.095Z,27.00
2022-08-21T17:35:47.411Z,27.00
2022-08-21T17:38:16.374Z,26.90
2022-08-21T17:40:45.033Z,26.80
2022-08-21T17:43:15.206Z,26.80
2022-08-21T17:45:44.277Z,26.70
2022-08-21T17:48:12.909Z,26.50
2022-08-21T17:50:42.755Z,26.50
2022-08-21T17:53:10.975Z,26.40
2022-08-21T17:55:39.096Z,26.10
2022-08-21T17:58:09.301Z,26.00
2022-08-21T18:00:38.114Z,25.80
2022-08-21T18:03:14.762Z,25.60
2022-08-21T18:05:44.831Z,25.40
2022-08-21T18:08:13.332Z,25.30
2022-08-21T18:10:46.206Z,25.10
2022-08-21T18:13:19.872Z,24.80
2022-08-21T18:15:52.393Z,24.70
2022-08-21T18:18:21.430Z,24.50
2022-08-21T18:20:52.977Z,24.30
2022-08-21T18:23:21.215Z,24.20
2022-08-21T18:26:09.717Z,24.00
2022-08-21T18:28:39.367Z,23.80
2022-08-21T18:31:10.852Z,23.60
2022-08-21T18:33:57.681Z,23.40
2022-08-21T18:36:29.505Z,23.20
2022-08-21T18:39:13.577Z,23.10
2022-08-21T18:41:48.479Z,22.90
2022-08-21T18:44:19.095Z,22.70
2022-08-21T18:46:53.137Z,22.60
2022-08-21T18:49:21.360Z,22.50
2022-08-21T18:51:52.151Z,22.40
2022-08-21T18:54:20.410Z,22.30
2022-08-21T18:56:51.307Z,22.20
2022-08-21T18:59:24.107Z,22.10
2022-08-21T19:01:53.260Z,21.90
2022-08-21T19:04:43.282Z,22.00
2022-08-21T19:07:13.488Z,20.90
2022-08-21T19:09:56.849Z,21.30
2022-08-21T19:12:31.178Z,21.30
2022-08-21T19:15:00.327Z,21.40
2022-08-21T19:17:29.069Z,21.50
2022-08-21T19:20:03.959Z,21.30
2022-08-21T19:22:33.615Z,21.40
2022-08-21T19:25:01.758Z,21.30
2022-08-21T19:27:30.239Z,21.10
2022-08-21T19:29:58.969Z,21.10
2022-08-21T19:32:27.934Z,21.10
2022-08-21T19:34:56.217Z,21.20
2022-08-21T19:37:26.941Z,21.10
2022-08-21T19:39:57.299Z,21.00
2022-08-21T19:42:28.639Z,20.90
2022-08-21T19:44:59.111Z,21.00
2022-08-21T19:47:29.342Z,21.00
2022-08-21T19:50:00.981Z,20.80
2022-08-21T19:52:32.443Z,20.80
2022-08-21T19:55:08.022Z,20.70
2022-08-21T19:57:39.270Z,20.70
2022-08-21T20:00:10.463Z,20.60
2022-08-21T20:02:39.716Z,20.70
2022-08-21T20:05:18.117Z,20.50
2022-08-21T20:07:46.416Z,20.40
2022-08-21T20:10:16.030Z,20.30
2022-08-21T20:12:46.608Z,20.40
2022-08-21T20:15:24.372Z,20.30
2022-08-21T20:17:53.330Z,20.30
2022-08-21T20:20:30.505Z,20.30
2022-08-21T20:22:59.883Z,20.30
2022-08-21T20:25:34.667Z,20.30
2022-08-21T20:28:03.869Z,20.20
2022-08-21T20:30:32.724Z,20.10
2022-08-21T20:33:01.013Z,20.10
2022-08-21T20:35:29.317Z,20.10
2022-08-21T20:37:59.052Z,20.10
2022-08-21T20:40:32.974Z,20.00
2022-08-21T20:43:03.119Z,19.90
2022-08-21T20:45:36.195Z,20.00
2022-08-21T20:48:08.134Z,19.80
2022-08-21T20:50:42.211Z,19.90
2022-08-21T20:53:17.088Z,19.90
2022-08-21T20:55:50.121Z,19.90
2022-08-21T20:58:32.981Z,19.90
